createdAt,value
2018-06-02T00:00:41.717Z,24.93
2018-06-02T00:03:09.992Z,25.20
2018-06-02T00:05:37.527Z,20.17
2018-06-02T00:08:05.147Z,24.83
2018-06-02T00:10:32.760Z,29.57
2018-06-02T00:13:00.606Z,35.20
2018-06-02T00:15:28.134Z,24.60
2018-06-02T00:17:55.660Z,24.23
2018-06-02T00:20:23.319Z,22.07
2018-06-02T00:22:50.896Z,22.60
2018-06-02T00:25:18.888Z,22.47
2018-06-02T00:27:46.406Z,22.17
2018-06-02T00:30:13.938Z,23.80
2018-06-02T00:32:41.523Z,25.80
2018-06-02T00:35:09.253Z,25.47
2018-06-02T00:37:36.778Z,26.60
2018-06-02T00:40:04.290Z,28.77
2018-06-02T00:42:31.826Z,28.37
2018-06-02T00:44:59.391Z,29.93
2018-06-02T00:47:26.913Z,31.43
2018-06-02T00:49:54.425Z,28.40
2018-06-02T00:52:22.110Z,26.90
2018-06-02T00:55:01.494Z,28.07
2018-06-02T00:57:29.151Z,28.50
2018-06-02T00:59:56.721Z,28.30
2018-06-02T01:02:24.259Z,28.77
2018-06-02T01:04:52.157Z,27.77
2018-06-02T01:07:19.730Z,29.67
2018-06-02T01:09:47.260Z,30.13
2018-06-02T01:12:14.773Z,32.23
2018-06-02T01:14:42.311Z,29.27
2018-06-02T01:17:09.892Z,29.27
2018-06-02T01:19:37.444Z,29.50
2018-06-02T01:22:05.030Z,29.33
2018-06-02T01:24:32.765Z,29.53
2018-06-02T01:27:00.299Z,30.30
2018-06-02T01:29:28.006Z,29.70
2018-06-02T01:31:55.771Z,30.30
2018-06-02T01:34:23.327Z,30.73
2018-06-02T01:36:50.851Z,31.00
2018-06-02T01:39:18.561Z,32.30
2018-06-02T01:41:46.079Z,31.67
2018-06-02T01:44:13.599Z,31.83
2018-06-02T01:46:41.265Z,33.80
2018-06-02T01:49:08.775Z,32.43
2018-06-02T01:51:36.454Z,34.43
2018-06-02T01:54:04.013Z,34.83
2018-06-02T01:56:31.577Z,34.20
2018-06-02T01:58:59.136Z,34.10
2018-06-02T02:01:26.923Z,31.20
2018-06-02T02:03:54.502Z,33.20
2018-06-02T02:06:22.258Z,35.63
2018-06-02T02:08:49.928Z,30.93
2018-06-02T02:11:17.435Z,32.37
2018-06-02T02:13:44.968Z,32.63
2018-06-02T02:16:13.098Z,34.17
2018-06-02T02:18:40.732Z,33.70
2018-06-02T02:21:08.270Z,33.57
2018-06-02T02:23:35.848Z,32.63
2018-06-02T02:26:03.340Z,34.23
2018-06-02T02:28:31.649Z,34.83
2018-06-02T02:30:59.171Z,34.57
2018-06-02T02:33:27.533Z,33.90
2018-06-02T02:35:55.062Z,33.07
2018-06-02T02:38:22.789Z,33.50
2018-06-02T02:40:51.068Z,34.87
2018-06-02T02:43:18.698Z,33.20
2018-06-02T02:45:46.491Z,33.17
2018-06-02T02:48:14.010Z,34.20
2018-06-02T02:50:41.684Z,34.30
2018-06-02T02:53:09.332Z,34.50
2018-06-02T02:55:36.896Z,33.47
2018-06-02T02:58:04.751Z,33.87
2018-06-02T03:00:32.459Z,33.43
2018-06-02T03:02:59.987Z,33.10
2018-06-02T03:05:28.358Z,33.30
2018-06-02T03:07:55.873Z,35.33
2018-06-02T03:10:23.378Z,34.23
2018-06-02T03:12:50.891Z,33.03
2018-06-02T03:15:18.480Z,32.77
2018-06-02T03:17:46.561Z,33.00
2018-06-02T03:20:14.128Z,33.63
2018-06-02T03:22:41.656Z,33.43
2018-06-02T03:25:10.021Z,33.00
2018-06-02T03:27:37.676Z,32.27
2018-06-02T03:30:05.189Z,35.10
2018-06-02T03:32:32.708Z,39.53
2018-06-02T03:35:00.682Z,34.10
2018-06-02T03:37:28.207Z,35.30
2018-06-02T03:39:55.819Z,34.40
2018-06-02T03:42:23.311Z,32.33
2018-06-02T03:44:51.642Z,33.60
2018-06-02T03:47:19.160Z,32.70
2018-06-02T03:49:47.334Z,33.47
2018-06-02T03:52:14.903Z,32.63
2018-06-02T03:54:43.224Z,32.27
2018-06-02T03:57:11.090Z,33.47
2018-06-02T03:59:38.581Z,32.83
2018-06-02T04:02:06.104Z,33.33
2018-06-02T04:04:34.070Z,33.07
2018-06-02T04:07:01.603Z,33.87
2018-06-02T04:09:29.104Z,32.13
2018-06-02T04:11:56.648Z,32.73
2018-06-02T04:14:24.196Z,32.53
2018-06-02T04:16:51.836Z,32.30
2018-06-02T04:19:19.373Z,31.80
2018-06-02T04:21:46.891Z,32.77
2018-06-02T04:24:14.482Z,32.20
2018-06-02T04:26:42.045Z,33.30
2018-06-02T04:29:10.452Z,34.53
2018-06-02T04:31:38.760Z,34.23
2018-06-02T04:34:06.288Z,40.27
2018-06-02T04:36:34.146Z,32.63
2018-06-02T04:39:01.795Z,32.77
2018-06-02T04:41:29.316Z,32.73
2018-06-02T04:43:58.063Z,31.83
2018-06-02T04:46:25.562Z,33.40
2018-06-02T04:48:53.838Z,33.30
2018-06-02T04:51:21.377Z,33.33
2018-06-02T04:53:49.690Z,33.67
2018-06-02T04:56:17.409Z,32.27
2018-06-02T04:58:44.934Z,32.77
2018-06-02T05:01:12.769Z,32.37
2018-06-02T05:03:40.316Z,31.27
2018-06-02T05:06:08.096Z,32.40
2018-06-02T05:08:35.731Z,31.00
2018-06-02T05:11:03.202Z,32.17
2018-06-02T05:13:30.773Z,33.73
2018-06-02T05:15:58.320Z,30.33
2018-06-02T05:18:26.767Z,30.63
2018-06-02T05:20:54.317Z,31.30
2018-06-02T05:23:22.829Z,32.23
2018-06-02T05:25:50.392Z,28.77
2018-06-02T05:28:18.657Z,28.07
2018-06-02T05:30:46.182Z,29.23
2018-06-02T05:33:13.919Z,27.87
2018-06-02T05:35:41.438Z,29.07
2018-06-02T05:38:08.994Z,27.87
2018-06-02T05:40:37.424Z,28.87
2018-06-02T05:43:05.072Z,28.70
2018-06-02T05:45:32.583Z,28.37
2018-06-02T05:48:00.280Z,32.00
2018-06-02T05:50:27.808Z,34.67
2018-06-02T05:52:55.360Z,29.57
2018-06-02T05:55:23.005Z,28.07
2018-06-02T05:57:50.541Z,28.97
2018-06-02T06:00:18.261Z,27.37
2018-06-02T06:02:45.848Z,28.13
2018-06-02T06:05:14.134Z,30.77
2018-06-02T06:07:41.683Z,29.80
2018-06-02T06:10:09.284Z,28.77
2018-06-02T06:12:36.806Z,26.67
2018-06-02T06:15:05.205Z,35.10
2018-06-02T06:17:32.730Z,32.27
2018-06-02T06:20:00.361Z,28.10
2018-06-02T06:22:27.922Z,27.37
2018-06-02T06:24:55.518Z,28.70
2018-06-02T06:27:23.046Z,26.33
2018-06-02T06:29:50.640Z,27.03
2018-06-02T06:32:18.267Z,27.80
2018-06-02T06:34:45.865Z,27.87
2018-06-02T06:37:14.874Z,27.80
2018-06-02T06:39:42.413Z,26.83
2018-06-02T06:42:10.720Z,25.03
2018-06-02T06:44:38.266Z,33.67
2018-06-02T06:47:06.414Z,27.13
2018-06-02T06:49:33.951Z,26.90
2018-06-02T06:52:01.678Z,28.70
2018-06-02T06:54:29.302Z,28.73
2018-06-02T06:56:57.114Z,28.93
2018-06-02T06:59:24.644Z,28.40
2018-06-02T07:01:52.380Z,27.23
2018-06-02T07:04:20.100Z,27.90
2018-06-02T07:06:47.659Z,30.40
2018-06-02T07:09:15.221Z,27.08
2018-06-02T07:11:42.750Z,27.23
2018-06-02T07:14:10.526Z,27.62
2018-06-02T07:16:38.600Z,32.90
2018-06-02T07:19:06.385Z,31.00
2018-06-02T07:21:34.013Z,30.48
2018-06-02T07:24:02.318Z,26.40
2018-06-02T07:26:30.294Z,25.25
2018-06-02T07:28:57.889Z,27.35
2018-06-02T07:31:25.889Z,26.17
2018-06-02T07:33:53.426Z,25.55
2018-06-02T07:36:22.033Z,23.85
2018-06-02T07:38:50.657Z,52.90
2018-06-02T07:41:18.278Z,26.48
2018-06-02T07:43:47.179Z,26.00
2018-06-02T07:46:15.664Z,26.67
2018-06-02T07:48:43.385Z,26.15
2018-06-02T07:51:11.129Z,28.33
2018-06-02T07:53:38.749Z,27.80
2018-06-02T07:56:07.078Z,28.73
2018-06-02T07:58:34.626Z,25.80
2018-06-02T08:01:02.337Z,26.40
2018-06-02T08:03:30.720Z,28.62
2018-06-02T08:05:59.021Z,27.33
2018-06-02T08:08:26.612Z,25.95
2018-06-02T08:10:54.162Z,26.45
2018-06-02T08:13:21.760Z,27.65
2018-06-02T08:15:49.309Z,25.55
2018-06-02T08:18:17.279Z,25.62
2018-06-02T08:20:44.816Z,24.60
2018-06-02T08:23:12.445Z,25.52
2018-06-02T08:25:40.093Z,26.52
2018-06-02T08:28:07.798Z,24.83
2018-06-02T08:30:35.315Z,23.35
2018-06-02T08:33:02.853Z,21.30
2018-06-02T08:35:31.291Z,24.35
2018-06-02T08:37:58.823Z,24.87
2018-06-02T08:40:26.402Z,23.83
2018-06-02T08:42:54.079Z,25.20
2018-06-02T08:45:21.975Z,23.87
2018-06-02T08:47:49.496Z,25.02
2018-06-02T08:50:17.135Z,25.33
2018-06-02T08:52:44.693Z,25.52
2018-06-02T08:55:12.291Z,26.20
2018-06-02T08:57:39.873Z,24.27
2018-06-02T09:00:07.525Z,23.65
2018-06-02T09:02:35.283Z,25.70
2018-06-02T09:05:03.428Z,24.92
2018-06-02T09:07:31.136Z,22.27
2018-06-02T09:09:58.680Z,21.55
2018-06-02T09:12:27.123Z,22.70
2018-06-02T09:14:55.548Z,23.95
2018-06-02T09:17:23.290Z,22.10
2018-06-02T09:19:51.446Z,22.23
2018-06-02T09:22:19.100Z,23.60
2018-06-02T09:24:46.678Z,28.08
2018-06-02T09:27:14.338Z,22.90
2018-06-02T09:29:42.509Z,22.80
2018-06-02T09:32:10.796Z,36.15
2018-06-02T09:34:40.302Z,28.15
2018-06-02T09:37:08.135Z,48.42
2018-06-02T09:39:36.589Z,32.63
2018-06-02T09:42:04.208Z,35.72
2018-06-02T09:44:31.752Z,26.98
2018-06-02T09:47:00.263Z,26.02
2018-06-02T09:49:28.120Z,24.55
2018-06-02T09:51:55.658Z,25.12
2018-06-02T09:54:23.355Z,24.45
2018-06-02T09:56:50.882Z,26.17
2018-06-02T09:59:18.783Z,24.65
2018-06-02T10:01:46.320Z,31.15
2018-06-02T10:04:14.727Z,27.17
2018-06-02T10:06:42.364Z,26.83
2018-06-02T10:09:10.141Z,26.95
2018-06-02T10:11:37.731Z,28.08
2018-06-02T10:14:05.312Z,31.52
2018-06-02T10:16:32.814Z,27.67
2018-06-02T10:19:01.262Z,28.65
2018-06-02T10:21:28.793Z,29.42
2018-06-02T10:23:56.365Z,27.20
2018-06-02T10:26:24.013Z,24.77
2018-06-02T10:28:51.648Z,38.72
2018-06-02T10:31:19.250Z,25.05
2018-06-02T10:33:47.768Z,21.62
2018-06-02T10:36:16.112Z,27.48
2018-06-02T10:38:43.711Z,25.73
2018-06-02T10:41:11.875Z,28.30
2018-06-02T10:43:40.277Z,25.30
2018-06-02T10:46:07.803Z,24.60
2018-06-02T10:48:35.381Z,21.55
2018-06-02T10:51:02.940Z,23.48
2018-06-02T10:53:30.483Z,24.45
2018-06-02T10:55:58.019Z,29.27
2018-06-02T10:58:25.612Z,28.38
2018-06-02T11:00:53.244Z,23.95
2018-06-02T11:03:20.756Z,28.10
2018-06-02T11:05:49.447Z,24.98
2018-06-02T11:08:17.733Z,28.77
2018-06-02T11:10:45.307Z,27.80
2018-06-02T11:13:13.780Z,28.52
2018-06-02T11:15:41.423Z,24.73
2018-06-02T11:18:09.837Z,23.42
2018-06-02T11:20:37.393Z,19.55
2018-06-02T11:23:05.016Z,26.42
2018-06-02T11:25:34.157Z,23.05
2018-06-02T11:28:03.183Z,25.17
2018-06-02T11:30:30.779Z,23.40
2018-06-02T11:33:01.908Z,25.80
2018-06-02T11:35:29.545Z,24.73
2018-06-02T11:37:57.237Z,21.10
2018-06-02T11:40:24.877Z,23.40
2018-06-02T11:42:52.698Z,22.85
2018-06-02T11:45:20.251Z,28.70
2018-06-02T11:47:47.789Z,22.62
2018-06-02T11:50:15.335Z,26.00
2018-06-02T11:52:42.934Z,23.27
2018-06-02T11:55:10.489Z,22.25
2018-06-02T11:57:38.540Z,27.62
2018-06-02T12:00:07.109Z,22.73
2018-06-02T12:02:34.783Z,22.00
2018-06-02T12:05:02.317Z,19.75
2018-06-02T12:07:31.309Z,20.90
2018-06-02T12:09:59.046Z,19.77
2018-06-02T12:12:26.677Z,20.45
2018-06-02T12:14:59.043Z,20.02
2018-06-02T12:17:26.742Z,24.48
2018-06-02T12:19:54.370Z,25.48
2018-06-02T12:22:21.907Z,23.08
2018-06-02T12:24:49.506Z,27.08
2018-06-02T12:27:17.574Z,22.08
2018-06-02T12:29:45.261Z,21.48
2018-06-02T12:32:12.781Z,23.75
2018-06-02T12:34:41.171Z,22.58
2018-06-02T12:37:09.469Z,20.48
2018-06-02T12:39:37.029Z,21.62
2018-06-02T12:42:05.772Z,24.83
2018-06-02T12:44:33.293Z,26.92
2018-06-02T12:47:01.775Z,26.48
2018-06-02T12:49:29.306Z,26.37
2018-06-02T12:51:57.635Z,23.38
2018-06-02T12:54:25.244Z,24.10
2018-06-02T12:56:53.562Z,25.08
2018-06-02T12:59:21.885Z,24.65
2018-06-02T13:01:49.454Z,23.42
2018-06-02T13:04:17.750Z,26.10
2018-06-02T13:06:45.409Z,23.25
2018-06-02T13:09:13.027Z,26.05
2018-06-02T13:11:40.565Z,23.75
2018-06-02T13:14:08.220Z,21.73
2018-06-02T13:16:35.913Z,23.95
2018-06-02T13:19:04.437Z,28.62
2018-06-02T13:21:32.038Z,20.02
2018-06-02T13:23:59.857Z,20.83
2018-06-02T13:26:28.261Z,21.58
2018-06-02T13:28:55.821Z,23.02
2018-06-02T13:31:23.336Z,22.48
2018-06-02T13:33:52.347Z,21.52
2018-06-02T13:36:20.070Z,27.73
2018-06-02T13:38:47.584Z,22.98
2018-06-02T13:41:15.098Z,33.47
2018-06-02T13:43:42.627Z,25.12
2018-06-02T13:46:10.133Z,22.10
2018-06-02T13:48:37.637Z,23.60
2018-06-02T13:51:05.157Z,25.65
2018-06-02T13:53:32.713Z,24.45
2018-06-02T13:56:00.998Z,26.00
2018-06-02T13:58:28.996Z,25.05
2018-06-02T14:00:56.541Z,22.48
2018-06-02T14:03:24.062Z,22.17
2018-06-02T14:05:51.728Z,23.27
2018-06-02T14:08:19.252Z,21.52
2018-06-02T14:10:46.769Z,23.80
2018-06-02T14:13:14.338Z,22.05
2018-06-02T14:15:43.152Z,21.87
2018-06-02T14:18:10.689Z,20.42
2018-06-02T14:20:38.350Z,20.92
2018-06-02T14:23:06.617Z,19.62
2018-06-02T14:25:35.048Z,21.25
2018-06-02T14:28:02.797Z,20.30
2018-06-02T14:30:31.284Z,19.95
2018-06-02T14:32:58.908Z,23.92
2018-06-02T14:35:26.810Z,21.80
2018-06-02T14:37:54.631Z,20.15
2018-06-02T14:40:23.065Z,18.33
2018-06-02T14:42:50.631Z,20.33
2018-06-02T14:45:18.137Z,21.00
2018-06-02T14:47:45.828Z,21.70
2018-06-02T14:50:13.400Z,20.27
2018-06-02T14:52:40.929Z,22.67
2018-06-02T14:55:08.709Z,20.20
2018-06-02T14:57:36.356Z,20.52
2018-06-02T15:00:04.057Z,20.55
2018-06-02T15:02:31.656Z,21.08
2018-06-02T15:04:59.243Z,20.42
2018-06-02T15:07:27.065Z,20.08
2018-06-02T15:09:55.230Z,21.70
2018-06-02T15:12:22.762Z,21.00
2018-06-02T15:14:50.272Z,22.13
2018-06-02T15:17:18.669Z,21.23
2018-06-02T15:19:46.814Z,20.33
2018-06-02T15:22:14.505Z,20.17
2018-06-02T15:24:42.031Z,18.40
2018-06-02T15:27:09.630Z,18.50
2018-06-02T15:29:37.174Z,19.35
2018-06-02T15:32:04.712Z,20.37
2018-06-02T15:34:32.241Z,21.27
2018-06-02T15:37:00.061Z,24.00
2018-06-02T15:39:27.785Z,20.58
2018-06-02T15:41:55.425Z,19.23
2018-06-02T15:44:23.929Z,19.00
2018-06-02T15:46:51.451Z,21.33
2018-06-02T15:49:19.927Z,19.25
2018-06-02T15:51:47.455Z,19.77
2018-06-02T15:54:14.987Z,21.52
2018-06-02T15:56:42.507Z,26.48
2018-06-02T15:59:10.783Z,19.35
2018-06-02T16:01:38.378Z,19.50
2018-06-02T16:04:05.949Z,21.30
2018-06-02T16:06:33.622Z,19.17
2018-06-02T16:09:01.220Z,18.87
2018-06-02T16:11:28.751Z,17.58
2018-06-02T16:13:56.255Z,18.65
2018-06-02T16:16:23.766Z,22.27
2018-06-02T16:18:51.308Z,20.10
2018-06-02T16:21:18.849Z,23.27
2018-06-02T16:23:46.438Z,19.75
2018-06-02T16:26:14.048Z,18.80
2018-06-02T16:28:42.894Z,21.75
2018-06-02T16:31:10.459Z,21.23
2018-06-02T16:33:38.798Z,21.98
2018-06-02T16:36:06.718Z,21.05
2018-06-02T16:38:34.586Z,21.58
2018-06-02T16:41:02.165Z,21.50
2018-06-02T16:43:29.883Z,19.37
2018-06-02T16:45:57.437Z,23.10
2018-06-02T16:48:24.953Z,21.02
2018-06-02T16:50:53.389Z,20.60
2018-06-02T16:53:21.136Z,23.40
2018-06-02T16:55:48.883Z,20.70
2018-06-02T16:58:16.575Z,19.60
2018-06-02T17:00:44.143Z,18.92
2018-06-02T17:03:11.870Z,23.08
2018-06-02T17:05:40.358Z,21.40
2018-06-02T17:08:08.814Z,21.80
2018-06-02T17:10:36.479Z,25.20
2018-06-02T17:13:04.028Z,21.45
2018-06-02T17:15:31.754Z,22.80
2018-06-02T17:17:59.666Z,20.88
2018-06-02T17:20:27.505Z,20.65
2018-06-02T17:22:55.097Z,20.62
2018-06-02T17:25:22.693Z,21.48
2018-06-02T17:27:51.019Z,22.00
2018-06-02T17:30:18.982Z,22.67
2018-06-02T17:32:46.581Z,22.07
2018-06-02T17:35:14.218Z,21.23
2018-06-02T17:37:41.772Z,20.97
2018-06-02T17:40:09.359Z,20.83
2018-06-02T17:42:37.114Z,21.20
2018-06-02T17:45:04.690Z,21.97
2018-06-02T17:47:32.281Z,22.97
2018-06-02T17:50:00.055Z,21.07
2018-06-02T17:52:27.578Z,21.53
2018-06-02T17:54:55.118Z,21.70
2018-06-02T17:57:22.705Z,23.57
2018-06-02T17:59:50.218Z,32.93
2018-06-02T18:02:17.772Z,24.50
2018-06-02T18:04:45.315Z,24.73
2018-06-02T18:07:12.869Z,28.07
2018-06-02T18:09:41.313Z,26.00
2018-06-02T18:12:09.081Z,33.53
2018-06-02T18:14:36.598Z,21.33
2018-06-02T18:17:04.136Z,29.70
2018-06-02T18:19:31.919Z,20.60
2018-06-02T18:21:59.562Z,24.50
2018-06-02T18:24:27.181Z,25.70
2018-06-02T18:26:55.195Z,37.17
2018-06-02T18:29:23.121Z,26.63
2018-06-02T18:31:51.572Z,23.13
2018-06-02T18:34:19.406Z,27.30
2018-06-02T18:36:46.920Z,28.40
2018-06-02T18:39:14.461Z,29.47
2018-06-02T18:41:42.184Z,22.73
2018-06-02T18:44:10.097Z,28.77
2018-06-02T18:46:37.694Z,29.47
2018-06-02T18:49:06.021Z,22.33
2018-06-02T18:51:34.137Z,22.73
2018-06-02T18:54:01.658Z,35.10
2018-06-02T18:56:29.497Z,25.53
2018-06-02T18:58:57.258Z,26.67
2018-06-02T19:01:24.792Z,20.77
2018-06-02T19:03:53.124Z,24.03
2018-06-02T19:06:21.072Z,20.37
2018-06-02T19:08:48.822Z,26.20
2018-06-02T19:11:16.657Z,36.60
2018-06-02T19:13:44.750Z,24.37
2018-06-02T19:16:12.293Z,22.23
2018-06-02T19:18:39.868Z,25.93
2018-06-02T19:21:08.260Z,24.50
2018-06-02T19:23:35.790Z,26.73
2018-06-02T19:26:03.291Z,31.27
2018-06-02T19:28:31.046Z,23.80
2018-06-02T19:30:58.693Z,27.73
2018-06-02T19:33:26.211Z,22.40
2018-06-02T19:35:53.753Z,22.67
2018-06-02T19:38:21.371Z,22.67
2018-06-02T19:40:50.261Z,27.13
2018-06-02T19:43:18.906Z,20.47
2018-06-02T19:45:46.478Z,31.60
2018-06-02T19:48:14.021Z,44.17
2018-06-02T19:50:42.600Z,30.50
2018-06-02T19:53:10.240Z,24.67
2018-06-02T19:55:38.065Z,29.60
2018-06-02T19:58:05.603Z,22.07
2018-06-02T20:00:33.900Z,21.57
2018-06-02T20:03:02.096Z,33.10
2018-06-02T20:05:29.792Z,29.47
2018-06-02T20:07:57.457Z,27.57
2018-06-02T20:10:25.684Z,23.10
2018-06-02T20:12:53.187Z,22.30
2018-06-02T20:15:21.365Z,21.53
2018-06-02T20:17:48.943Z,20.30
2018-06-02T20:20:16.681Z,24.37
2018-06-02T20:22:44.209Z,23.50
2018-06-02T20:25:12.502Z,35.07
2018-06-02T20:27:40.114Z,22.37
2018-06-02T20:30:07.809Z,21.40
2018-06-02T20:32:35.334Z,27.33
2018-06-02T20:35:03.076Z,35.33
2018-06-02T20:37:30.591Z,19.23
2018-06-02T20:39:58.114Z,20.87
2018-06-02T20:42:26.151Z,31.13
2018-06-02T20:44:54.129Z,20.23
2018-06-02T20:47:21.679Z,26.17
2018-06-02T20:49:49.799Z,19.10
2018-06-02T20:52:17.435Z,19.70
2018-06-02T20:54:44.986Z,21.93
2018-06-02T20:57:12.520Z,30.40
2018-06-02T20:59:40.943Z,21.33
2018-06-02T21:02:08.608Z,26.47
2018-06-02T21:04:36.642Z,21.93
2018-06-02T21:07:04.968Z,28.00
2018-06-02T21:09:32.511Z,23.30
2018-06-02T21:12:01.334Z,25.03
2018-06-02T21:14:29.314Z,23.03
2018-06-02T21:16:57.455Z,29.13
2018-06-02T21:19:25.061Z,24.07
2018-06-02T21:21:52.809Z,24.63
2018-06-02T21:24:20.331Z,22.90
2018-06-02T21:27:14.989Z,28.53
2018-06-02T21:29:43.350Z,25.63
2018-06-02T21:32:11.704Z,24.03
2018-06-02T21:34:39.962Z,23.03
2018-06-02T21:37:08.190Z,26.13
2018-06-02T21:39:36.563Z,25.60
2018-06-02T21:42:05.613Z,22.53
2018-06-02T21:44:33.879Z,21.03
2018-06-02T21:47:02.279Z,25.70
2018-06-02T21:49:30.657Z,25.53
2018-06-02T21:51:58.999Z,24.10
2018-06-02T21:54:27.234Z,22.47
2018-06-02T21:56:55.419Z,27.00
2018-06-02T21:59:23.731Z,52.97
2018-06-02T22:01:52.064Z,28.83
2018-06-02T22:04:20.285Z,26.67
2018-06-02T22:06:48.528Z,32.03
2018-06-02T22:09:16.904Z,33.77
2018-06-02T22:11:45.301Z,33.43
2018-06-02T22:14:14.291Z,25.03
2018-06-02T22:16:42.931Z,28.20
2018-06-02T22:19:11.142Z,30.00
2018-06-02T22:21:39.461Z,43.37
2018-06-02T22:24:07.739Z,37.77
2018-06-02T22:26:35.928Z,32.47
2018-06-02T22:29:04.625Z,28.03
2018-06-02T22:31:33.151Z,27.10
2018-06-02T22:34:01.401Z,53.83
2018-06-02T22:36:29.741Z,27.97
2018-06-02T22:38:58.122Z,28.40
2018-06-02T22:41:26.402Z,28.73
2018-06-02T22:43:55.055Z,32.53
2018-06-02T22:46:23.261Z,30.13
2018-06-02T22:48:51.677Z,29.67
2018-06-02T22:51:30.080Z,33.07
2018-06-02T22:53:58.437Z,40.67
2018-06-02T22:56:26.803Z,32.30
2018-06-02T22:58:55.425Z,34.30
2018-06-02T23:01:23.742Z,31.57
2018-06-02T23:03:52.223Z,33.37
2018-06-02T23:06:20.445Z,52.27
2018-06-02T23:08:49.120Z,38.83
2018-06-02T23:11:17.410Z,33.37
2018-06-02T23:13:45.591Z,35.27
2018-06-02T23:16:14.085Z,47.90
2018-06-02T23:18:42.539Z,33.80
2018-06-02T23:21:10.989Z,30.97
2018-06-02T23:23:39.212Z,31.50
2018-06-02T23:26:07.393Z,36.67
2018-06-02T23:28:35.605Z,40.77
2018-06-02T23:31:04.071Z,43.77
2018-06-02T23:33:32.310Z,34.53
2018-06-02T23:36:00.511Z,49.47
2018-06-02T23:38:28.702Z,33.97
2018-06-02T23:40:56.832Z,34.67
2018-06-02T23:43:25.244Z,34.77
2018-06-02T23:45:53.429Z,35.07
2018-06-02T23:48:21.954Z,32.20
2018-06-02T23:50:50.146Z,33.20
2018-06-02T23:53:18.415Z,36.80
2018-06-02T23:55:47.433Z,34.40
2018-06-02T23:58:15.701Z,33.77
